createdAt,value
2024-01-05T00:00:14.787Z,0.87
2024-01-05T00:02:42.380Z,0.86
2024-01-05T00:05:10.040Z,0.83
2024-01-05T00:07:37.605Z,0.81
2024-01-05T00:10:05.151Z,0.78
2024-01-05T00:12:32.885Z,0.74
2024-01-05T00:15:00.719Z,0.73
2024-01-05T00:17:28.440Z,0.73
2024-01-05T00:19:56.065Z,0.73
2024-01-05T00:22:23.672Z,0.73
2024-01-05T00:24:51.644Z,0.72
2024-01-05T00:27:19.259Z,0.70
2024-01-05T00:29:46.954Z,0.67
2024-01-05T00:32:17.098Z,0.65
2024-01-05T00:34:46.273Z,0.63
2024-01-05T00:37:13.939Z,0.64
2024-01-05T00:39:41.622Z,0.66
2024-01-05T00:42:09.265Z,0.67
2024-01-05T00:44:37.118Z,0.67
2024-01-05T00:47:04.683Z,0.66
2024-01-05T00:49:32.377Z,0.65
2024-01-05T00:52:00.012Z,0.63
2024-01-05T00:54:27.506Z,0.60
2024-01-05T00:56:55.150Z,0.60
2024-01-05T00:59:22.893Z,0.60
2024-01-05T01:01:50.547Z,0.62
2024-01-05T01:04:18.240Z,0.64
2024-01-05T01:06:46.183Z,0.63
2024-01-05T01:09:14.384Z,0.62
2024-01-05T01:11:42.041Z,0.59
2024-01-05T01:14:09.580Z,0.57
2024-01-05T01:16:37.243Z,0.54
2024-01-05T01:19:05.219Z,0.53
2024-01-05T01:21:33.125Z,0.55
2024-01-05T01:24:00.980Z,0.59
2024-01-05T01:26:28.799Z,0.62
2024-01-05T01:28:56.349Z,0.64
2024-01-05T01:31:23.972Z,0.68
2024-01-05T01:33:52.069Z,0.69
2024-01-05T01:36:19.892Z,0.70
2024-01-05T01:38:47.515Z,0.68
2024-01-05T01:41:15.168Z,0.69
2024-01-05T01:43:42.833Z,0.70
2024-01-05T01:46:10.387Z,0.71
2024-01-05T01:48:38.083Z,0.72
2024-01-05T01:51:05.873Z,0.73
2024-01-05T01:53:33.955Z,0.71
2024-01-05T01:56:01.661Z,0.70
2024-01-05T01:58:29.312Z,0.68
2024-01-05T02:00:57.037Z,0.64
2024-01-05T02:03:24.732Z,0.61
2024-01-05T02:05:52.432Z,0.60
2024-01-05T02:08:20.176Z,0.60
2024-01-05T02:10:47.716Z,0.58
2024-01-05T02:13:15.381Z,0.56
2024-01-05T02:15:42.940Z,0.56
2024-01-05T02:18:10.626Z,0.56
2024-01-05T02:20:38.373Z,0.56
2024-01-05T02:23:06.024Z,0.56
2024-01-05T02:25:33.598Z,0.57
2024-01-05T02:28:01.250Z,0.59
2024-01-05T02:30:29.013Z,0.61
2024-01-05T02:32:56.826Z,0.65
2024-01-05T02:35:24.544Z,0.69
2024-01-05T02:37:52.196Z,0.74
2024-01-05T02:40:19.768Z,0.79
2024-01-05T02:42:47.422Z,0.83
2024-01-05T02:45:15.016Z,0.84
2024-01-05T02:47:42.677Z,0.83
2024-01-05T02:50:10.404Z,0.79
2024-01-05T02:52:38.065Z,0.75
2024-01-05T02:55:05.620Z,0.71
2024-01-05T02:57:33.264Z,0.69
2024-01-05T03:00:01.113Z,0.67
2024-01-05T03:02:28.812Z,0.65
2024-01-05T03:04:56.505Z,0.64
2024-01-05T03:07:24.234Z,0.62
2024-01-05T03:09:51.918Z,0.59
2024-01-05T03:12:19.497Z,0.59
2024-01-05T03:14:47.526Z,0.57
2024-01-05T03:17:15.082Z,0.58
2024-01-05T03:19:42.616Z,0.62
2024-01-05T03:22:10.502Z,0.67
2024-01-05T03:24:38.062Z,0.71
2024-01-05T03:27:05.732Z,0.75
2024-01-05T03:29:33.412Z,0.77
2024-01-05T03:32:01.046Z,0.78
2024-01-05T03:34:28.535Z,0.75
2024-01-05T03:36:56.482Z,0.71
2024-01-05T03:39:23.972Z,0.67
2024-01-05T03:41:51.625Z,0.66
2024-01-05T03:44:19.252Z,0.69
2024-01-05T03:46:46.814Z,0.75
2024-01-05T03:49:14.535Z,0.81
2024-01-05T03:51:42.238Z,0.84
2024-01-05T03:54:09.874Z,0.82
2024-01-05T03:56:37.673Z,0.84
2024-01-05T03:59:05.337Z,0.86
2024-01-05T04:01:32.918Z,0.85
2024-01-05T04:04:01.029Z,0.82
2024-01-05T04:06:28.683Z,0.80
2024-01-05T04:08:56.398Z,0.75
2024-01-05T04:11:24.049Z,0.71
2024-01-05T04:13:51.708Z,0.72
2024-01-05T04:16:19.362Z,0.73
2024-01-05T04:18:47.044Z,0.73
2024-01-05T04:21:14.724Z,0.73
2024-01-05T04:23:42.358Z,0.71
2024-01-05T04:26:10.011Z,0.73
2024-01-05T04:28:37.565Z,0.70
2024-01-05T04:31:05.283Z,0.67
2024-01-05T04:33:32.990Z,0.64
2024-01-05T04:36:00.674Z,0.64
2024-01-05T04:38:28.315Z,0.64
2024-01-05T04:40:55.874Z,0.63
2024-01-05T04:43:23.852Z,0.62
2024-01-05T04:45:51.507Z,0.62
2024-01-05T04:48:19.178Z,0.66
2024-01-05T04:50:46.830Z,0.68
2024-01-05T04:53:14.375Z,0.69
2024-01-05T04:55:41.946Z,0.69
2024-01-05T04:58:09.502Z,0.71
2024-01-05T05:00:37.892Z,0.69
2024-01-05T05:03:05.629Z,0.66
2024-01-05T05:05:33.541Z,0.61
2024-01-05T05:08:01.096Z,0.57
2024-01-05T05:10:28.722Z,0.56
2024-01-05T05:12:56.289Z,0.57
2024-01-05T05:15:23.897Z,0.60
2024-01-05T05:17:54.333Z,0.57
2024-01-05T05:20:22.259Z,0.56
2024-01-05T05:22:49.809Z,0.58
2024-01-05T05:25:17.692Z,0.57
2024-01-05T05:27:45.328Z,0.54
2024-01-05T05:30:13.003Z,0.51
2024-01-05T05:32:40.767Z,0.51
2024-01-05T05:35:08.360Z,0.52
2024-01-05T05:37:35.965Z,0.51
2024-01-05T05:40:03.529Z,0.49
2024-01-05T05:42:31.267Z,0.49
2024-01-05T05:44:58.992Z,0.46
2024-01-05T05:47:26.657Z,0.44
2024-01-05T05:49:54.472Z,0.44
2024-01-05T05:52:22.239Z,0.45
2024-01-05T05:54:49.804Z,0.47
2024-01-05T05:57:17.415Z,0.52
2024-01-05T05:59:45.130Z,0.57
2024-01-05T06:02:12.789Z,0.61
2024-01-05T06:04:40.805Z,0.60
2024-01-05T06:07:08.474Z,0.59
2024-01-05T06:09:36.202Z,0.58
2024-01-05T06:12:03.906Z,0.56
2024-01-05T06:14:31.403Z,0.56
2024-01-05T06:16:59.078Z,0.56
2024-01-05T06:19:26.812Z,0.57
2024-01-05T06:21:54.487Z,0.61
2024-01-05T06:24:22.033Z,0.65
2024-01-05T06:26:49.731Z,0.69
2024-01-05T06:29:17.713Z,0.74
2024-01-05T06:31:45.760Z,0.80
2024-01-05T06:34:13.992Z,0.82
2024-01-05T06:36:41.761Z,0.82
2024-01-05T06:39:09.571Z,0.82
2024-01-05T06:41:37.204Z,0.82
2024-01-05T06:44:04.867Z,0.83
2024-01-05T06:46:32.438Z,0.83
2024-01-05T06:49:00.410Z,0.83
2024-01-05T06:51:28.190Z,0.84
2024-01-05T06:53:56.273Z,0.84
2024-01-05T06:56:23.991Z,0.83
2024-01-05T06:58:51.545Z,0.81
2024-01-05T07:01:19.284Z,0.81
2024-01-05T07:03:47.025Z,0.82
2024-01-05T07:06:14.692Z,0.86
2024-01-05T07:08:42.426Z,0.90
2024-01-05T07:11:10.064Z,0.93
2024-01-05T07:13:37.734Z,0.95
2024-01-05T07:16:05.296Z,0.95
2024-01-05T07:18:33.075Z,0.94
2024-01-05T07:21:00.736Z,0.97
2024-01-05T07:23:28.374Z,0.99
2024-01-05T07:25:55.929Z,1.02
2024-01-05T07:28:23.588Z,1.04
2024-01-05T07:30:51.193Z,1.07
2024-01-05T07:33:19.279Z,1.08
2024-01-05T07:35:47.085Z,1.10
2024-01-05T07:38:14.657Z,1.12
2024-01-05T07:40:42.351Z,1.15
2024-01-05T07:43:09.970Z,1.20
2024-01-05T07:45:37.653Z,1.25
2024-01-05T07:48:05.396Z,1.31
2024-01-05T07:50:33.055Z,1.36
2024-01-05T07:53:00.610Z,1.41
2024-01-05T07:55:28.200Z,1.43
2024-01-05T07:57:55.863Z,1.47
2024-01-05T08:00:23.629Z,1.51
2024-01-05T08:02:51.413Z,1.54
2024-01-05T08:05:19.161Z,1.60
2024-01-05T08:07:46.991Z,1.68
2024-01-05T08:10:14.555Z,1.80
2024-01-05T08:12:42.207Z,1.89
2024-01-05T08:15:10.242Z,1.96
2024-01-05T08:17:38.116Z,2.01
2024-01-05T08:20:05.900Z,2.07
2024-01-05T08:22:33.593Z,2.16
2024-01-05T08:25:01.131Z,2.27
2024-01-05T08:27:28.815Z,2.40
2024-01-05T08:29:56.474Z,2.51
2024-01-05T08:32:24.118Z,2.59
2024-01-05T08:34:52.107Z,2.69
2024-01-05T08:37:19.838Z,2.82
2024-01-05T08:39:47.449Z,3.00
2024-01-05T08:42:15.529Z,3.16
2024-01-05T08:44:43.443Z,3.30
2024-01-05T08:47:11.115Z,3.43
2024-01-05T08:49:39.117Z,3.55
2024-01-05T08:52:06.933Z,3.67
2024-01-05T08:54:34.942Z,3.79
2024-01-05T08:57:02.575Z,3.92
2024-01-05T08:59:36.515Z,4.03
2024-01-05T09:02:04.261Z,3.98
2024-01-05T09:04:31.794Z,3.86
2024-01-05T09:06:59.462Z,3.74
2024-01-05T09:09:27.071Z,3.58
2024-01-05T09:11:54.811Z,3.41
2024-01-05T09:14:22.969Z,3.25
2024-01-05T09:16:50.521Z,3.09
2024-01-05T09:19:19.482Z,2.99
2024-01-05T09:21:48.803Z,2.90
2024-01-05T09:24:16.372Z,2.82
2024-01-05T09:26:44.025Z,2.79
2024-01-05T09:29:11.587Z,2.79
2024-01-05T09:31:39.280Z,2.93
2024-01-05T09:34:07.074Z,3.14
2024-01-05T09:36:34.777Z,3.31
2024-01-05T09:39:02.553Z,3.51
2024-01-05T09:41:30.501Z,3.70
2024-01-05T09:43:58.349Z,3.98
2024-01-05T09:46:26.030Z,4.41
2024-01-05T09:48:55.132Z,4.58
2024-01-05T09:51:23.237Z,4.65
2024-01-05T09:53:50.973Z,4.66
2024-01-05T09:56:18.528Z,4.71
2024-01-05T09:58:46.207Z,4.78
2024-01-05T10:01:14.088Z,4.90
2024-01-05T10:03:41.803Z,5.07
2024-01-05T10:06:09.605Z,5.23
2024-01-05T10:08:37.335Z,5.31
2024-01-05T10:11:04.906Z,5.40
2024-01-05T10:13:32.453Z,5.45
2024-01-05T10:16:00.123Z,5.41
2024-01-05T10:18:27.785Z,5.34
2024-01-05T10:20:55.441Z,5.27
2024-01-05T10:23:23.319Z,5.22
2024-01-05T10:25:50.974Z,5.17
2024-01-05T10:28:18.514Z,5.13
2024-01-05T10:30:46.274Z,5.13
2024-01-05T10:33:14.125Z,5.17
2024-01-05T10:38:09.684Z,5.22
2024-01-05T10:40:37.572Z,5.25
2024-01-05T10:43:05.310Z,5.31
2024-01-05T10:45:32.941Z,5.41
2024-01-05T10:48:00.697Z,5.51
2024-01-05T10:50:28.490Z,5.64
2024-01-05T10:52:56.064Z,5.77
2024-01-05T10:55:23.832Z,5.87
2024-01-05T10:57:51.573Z,5.96
2024-01-05T11:00:19.160Z,6.07
2024-01-05T11:02:47.103Z,6.24
2024-01-05T11:05:15.435Z,6.39
2024-01-05T11:07:43.844Z,6.42
2024-01-05T11:10:14.703Z,6.40
2024-01-05T11:12:42.422Z,6.42
2024-01-05T11:15:10.168Z,6.52
2024-01-05T11:17:37.867Z,6.70
2024-01-05T11:20:05.660Z,6.87
2024-01-05T11:22:33.423Z,6.99
2024-01-05T11:25:00.989Z,7.07
2024-01-05T11:27:28.641Z,7.14
2024-01-05T11:29:56.434Z,7.18
2024-01-05T11:32:24.053Z,7.23
2024-01-05T11:34:51.899Z,7.32
2024-01-05T11:37:19.598Z,7.48
2024-01-05T11:39:47.418Z,7.64
2024-01-05T11:42:15.545Z,7.88
2024-01-05T11:44:43.290Z,8.11
2024-01-05T11:47:10.940Z,8.31
2024-01-05T11:49:38.574Z,8.51
2024-01-05T11:52:06.375Z,8.79
2024-01-05T11:54:33.760Z,8.99
2024-01-05T11:57:01.360Z,9.09
2024-01-05T11:59:29.152Z,9.09
2024-01-05T12:01:56.816Z,9.09
2024-01-05T12:04:24.425Z,9.06
2024-01-05T12:06:52.612Z,9.04
2024-01-05T12:09:20.249Z,9.12
2024-01-05T12:11:47.981Z,9.28
2024-01-05T12:14:15.541Z,9.40
2024-01-05T12:16:43.189Z,9.46
2024-01-05T12:19:11.024Z,9.51
2024-01-05T12:21:38.752Z,9.88
2024-01-05T12:24:06.486Z,10.20
2024-01-05T12:26:33.939Z,10.45
2024-01-05T12:29:01.598Z,10.50
2024-01-05T12:31:29.503Z,10.65
2024-01-05T12:33:57.393Z,10.86
2024-01-05T12:36:25.307Z,11.10
2024-01-05T12:38:53.088Z,11.22
2024-01-05T12:41:21.347Z,10.98
2024-01-05T12:43:49.208Z,10.63
2024-01-05T12:46:16.756Z,10.21
2024-01-05T12:48:44.517Z,9.81
2024-01-05T12:51:12.739Z,9.51
2024-01-05T12:53:40.358Z,9.30
2024-01-05T12:56:08.020Z,9.10
2024-01-05T12:58:36.128Z,8.85
2024-01-05T13:01:04.020Z,8.58
2024-01-05T13:03:31.686Z,8.37
2024-01-05T13:05:59.582Z,8.19
2024-01-05T13:08:27.255Z,7.98
2024-01-05T13:10:54.798Z,7.81
2024-01-05T13:13:22.765Z,7.69
2024-01-05T13:15:50.359Z,7.66
2024-01-05T13:18:18.202Z,7.69
2024-01-05T13:20:45.966Z,7.76
2024-01-05T13:23:15.370Z,7.80
2024-01-05T13:25:44.462Z,7.87
2024-01-05T13:28:12.141Z,8.18
2024-01-05T13:30:39.801Z,8.93
2024-01-05T13:33:07.866Z,9.51
2024-01-05T13:35:35.528Z,9.47
2024-01-05T13:38:03.200Z,9.23
2024-01-05T13:40:30.838Z,8.92
2024-01-05T13:42:58.404Z,8.63
2024-01-05T13:45:26.129Z,8.33
2024-01-05T13:47:53.831Z,7.98
2024-01-05T13:50:21.506Z,7.63
2024-01-05T13:52:49.449Z,7.29
2024-01-05T13:55:17.048Z,6.94
2024-01-05T13:57:44.808Z,6.64
2024-01-05T14:00:12.575Z,6.36
2024-01-05T14:02:40.263Z,6.10
2024-01-05T14:05:07.872Z,5.86
2024-01-05T14:07:35.421Z,5.64
2024-01-05T14:10:02.990Z,5.45
2024-01-05T14:12:30.568Z,5.28
2024-01-05T14:14:58.201Z,5.14
2024-01-05T14:17:25.894Z,5.03
2024-01-05T14:19:53.778Z,4.92
2024-01-05T14:22:21.594Z,4.81
2024-01-05T14:24:49.251Z,4.69
2024-01-05T14:27:16.924Z,4.57
2024-01-05T14:29:44.473Z,4.49
2024-01-05T14:32:12.235Z,4.40
2024-01-05T14:34:42.443Z,4.32
2024-01-05T14:37:10.335Z,4.22
2024-01-05T14:39:38.122Z,4.13
2024-01-05T14:42:05.765Z,4.02
2024-01-05T14:44:33.198Z,3.93
2024-01-05T14:47:00.754Z,3.84
2024-01-05T14:49:28.423Z,3.76
2024-01-05T14:51:56.185Z,3.68
2024-01-05T14:54:23.867Z,3.59
2024-01-05T14:56:51.812Z,3.51
2024-01-05T14:59:19.378Z,3.44
2024-01-05T15:01:46.961Z,3.39
2024-01-05T15:04:14.761Z,3.34
2024-01-05T15:06:42.735Z,3.30
2024-01-05T15:09:10.486Z,3.26
2024-01-05T15:11:38.110Z,3.24
2024-01-05T15:14:05.750Z,3.22
2024-01-05T15:16:33.433Z,3.21
2024-01-05T15:19:01.392Z,3.22
2024-01-05T15:21:29.132Z,3.23
2024-01-05T15:23:56.809Z,3.24
2024-01-05T15:26:24.487Z,3.25
2024-01-05T15:28:52.026Z,3.25
2024-01-05T15:31:19.780Z,3.24
2024-01-05T15:33:47.713Z,3.25
2024-01-05T15:36:15.452Z,3.24
2024-01-05T15:38:42.980Z,3.23
2024-01-05T15:41:10.646Z,3.23
2024-01-05T15:43:38.198Z,3.21
2024-01-05T15:46:05.888Z,3.20
2024-01-05T15:48:33.540Z,3.21
2024-01-05T15:51:01.398Z,3.22
2024-01-05T15:53:29.064Z,3.23
2024-01-05T15:55:59.074Z,3.24
2024-01-05T15:58:27.241Z,3.25
2024-01-05T16:00:55.219Z,3.21
2024-01-05T16:03:22.936Z,3.19
2024-01-05T16:05:50.889Z,3.16
2024-01-05T16:08:18.604Z,3.15
2024-01-05T16:10:46.149Z,3.16
2024-01-05T16:13:13.823Z,3.17
2024-01-05T16:15:41.516Z,3.17
2024-01-05T16:18:09.177Z,3.16
2024-01-05T16:20:37.001Z,3.13
2024-01-05T16:23:04.975Z,3.11
2024-01-05T16:25:32.637Z,3.09
2024-01-05T16:28:00.277Z,3.09
2024-01-05T16:30:28.131Z,3.08
2024-01-05T16:32:55.845Z,3.08
2024-01-05T16:35:23.492Z,3.06
2024-01-05T16:37:51.134Z,3.05
2024-01-05T16:40:18.997Z,3.05
2024-01-05T16:42:46.693Z,3.05
2024-01-05T16:45:14.368Z,3.05
2024-01-05T16:47:42.059Z,3.05
2024-01-05T16:50:09.761Z,3.03
2024-01-05T16:52:37.406Z,3.01
2024-01-05T16:55:05.099Z,2.99
2024-01-05T16:57:32.877Z,2.96
2024-01-05T17:00:00.490Z,2.94
2024-01-05T17:02:28.470Z,2.91
2024-01-05T17:04:56.051Z,2.87
2024-01-05T17:07:23.707Z,2.85
2024-01-05T17:09:51.324Z,2.85
2024-01-05T17:12:19.147Z,2.83
2024-01-05T17:14:46.791Z,2.81
2024-01-05T17:17:14.649Z,2.80
2024-01-05T17:19:42.394Z,2.80
2024-01-05T17:22:10.274Z,2.79
2024-01-05T17:24:37.676Z,2.78
2024-01-05T17:27:05.309Z,2.75
2024-01-05T17:29:33.054Z,2.73
2024-01-05T17:32:00.617Z,2.73
2024-01-05T17:34:28.273Z,2.74
2024-01-05T17:36:55.851Z,2.74
2024-01-05T17:39:23.309Z,2.75
2024-01-05T17:41:50.950Z,2.77
2024-01-05T17:44:18.617Z,2.79
2024-01-05T17:46:46.287Z,2.82
2024-01-05T17:49:14.446Z,2.84
2024-01-05T17:51:42.206Z,2.85
2024-01-05T17:54:10.009Z,2.87
2024-01-05T17:56:37.655Z,2.90
2024-01-05T17:59:05.292Z,2.91
2024-01-05T18:01:33.165Z,2.93
2024-01-05T18:04:01.366Z,2.93
2024-01-05T18:06:29.409Z,2.94
2024-01-05T18:08:57.072Z,2.95
2024-01-05T18:11:24.967Z,2.96
2024-01-05T18:13:52.699Z,2.97
2024-01-05T18:16:20.269Z,2.96
2024-01-05T18:18:48.001Z,2.96
2024-01-05T18:21:15.708Z,2.97
2024-01-05T18:23:43.338Z,2.98
2024-01-05T18:26:11.023Z,2.98
2024-01-05T18:28:38.564Z,2.97
2024-01-05T18:31:06.487Z,2.96
2024-01-05T18:33:34.281Z,2.97
2024-01-05T18:36:02.075Z,2.99
2024-01-05T18:38:29.613Z,3.01
2024-01-05T18:40:57.276Z,3.01
2024-01-05T18:43:24.944Z,3.02
2024-01-05T18:45:52.547Z,3.02
2024-01-05T18:48:20.546Z,3.03
2024-01-05T18:50:48.674Z,3.05
2024-01-05T18:53:16.297Z,3.08
2024-01-05T18:55:43.965Z,3.09
2024-01-05T18:58:11.519Z,3.09
2024-01-05T19:00:39.260Z,3.09
2024-01-05T19:03:07.047Z,3.10
2024-01-05T19:05:34.988Z,3.11
2024-01-05T19:08:02.668Z,3.14
2024-01-05T19:10:30.335Z,3.17
2024-01-05T19:12:58.278Z,3.20
2024-01-05T19:15:25.999Z,3.22
2024-01-05T19:17:53.813Z,3.25
2024-01-05T19:20:21.708Z,3.28
2024-01-05T19:22:49.356Z,3.32
2024-01-05T19:25:17.026Z,3.37
2024-01-05T19:27:44.657Z,3.41
2024-01-05T19:30:12.522Z,3.46
2024-01-05T19:32:40.620Z,3.49
2024-01-05T19:35:08.331Z,3.49
2024-01-05T19:37:36.045Z,3.48
2024-01-05T19:40:03.603Z,3.45
2024-01-05T19:42:31.201Z,3.45
2024-01-05T19:44:58.825Z,3.45
2024-01-05T19:47:26.594Z,3.45
2024-01-05T19:49:54.506Z,3.46
2024-01-05T19:52:22.630Z,3.45
2024-01-05T19:54:50.283Z,3.43
2024-01-05T19:57:17.858Z,3.38
2024-01-05T19:59:45.494Z,3.32
2024-01-05T20:02:13.061Z,3.26
2024-01-05T20:04:40.617Z,3.22
2024-01-05T20:07:08.305Z,3.19
2024-01-05T20:09:36.098Z,3.15
2024-01-05T20:12:03.871Z,3.09
2024-01-05T20:14:31.468Z,3.03
2024-01-05T20:16:59.447Z,2.96
2024-01-05T20:19:27.179Z,2.89
2024-01-05T20:21:55.014Z,2.82
2024-01-05T20:24:23.472Z,2.78
2024-01-05T20:26:51.104Z,2.73
2024-01-05T20:29:18.680Z,2.68
2024-01-05T20:31:46.407Z,2.64
2024-01-05T20:34:14.293Z,2.59
2024-01-05T20:36:41.973Z,2.55
2024-01-05T20:39:09.958Z,2.50
2024-01-05T20:41:37.595Z,2.45
2024-01-05T20:44:05.250Z,2.38
2024-01-05T20:46:32.910Z,2.30
2024-01-05T20:49:00.616Z,2.25
2024-01-05T20:51:28.479Z,2.21
2024-01-05T20:53:56.101Z,2.15
2024-01-05T20:56:23.689Z,2.07
2024-01-05T20:58:51.625Z,1.99
2024-01-05T21:01:19.388Z,1.94
2024-01-05T21:03:47.560Z,1.90
2024-01-05T21:06:15.284Z,1.86
2024-01-05T21:08:43.100Z,1.80
2024-01-05T21:11:10.756Z,1.74
2024-01-05T21:13:38.316Z,1.69
2024-01-05T21:16:05.877Z,1.67
2024-01-05T21:18:33.552Z,1.68
2024-01-05T21:21:02.248Z,1.68
2024-01-05T21:23:30.188Z,1.71
2024-01-05T21:25:57.761Z,1.72
2024-01-05T21:28:25.406Z,1.74
2024-01-05T21:30:53.148Z,1.75
2024-01-05T21:33:20.907Z,1.75
2024-01-05T21:35:48.697Z,1.75
2024-01-05T21:38:16.254Z,1.77
2024-01-05T21:40:43.706Z,1.81
2024-01-05T21:43:11.269Z,1.87
2024-01-05T21:45:38.886Z,1.91
2024-01-05T21:48:06.691Z,1.93
2024-01-05T21:50:34.475Z,1.91
2024-01-05T21:53:02.023Z,1.89
2024-01-05T21:55:29.682Z,1.90
2024-01-05T21:57:57.565Z,1.93
2024-01-05T22:00:25.267Z,1.95
2024-01-05T22:02:52.915Z,1.97
2024-01-05T22:05:20.533Z,2.00
2024-01-05T22:07:48.192Z,2.01
2024-01-05T22:10:16.203Z,2.01
2024-01-05T22:12:43.853Z,2.04
2024-01-05T22:15:11.720Z,2.08
2024-01-05T22:17:39.406Z,2.13
2024-01-05T22:20:07.587Z,2.15
2024-01-05T22:22:35.185Z,2.16
2024-01-05T22:25:02.750Z,2.16
2024-01-05T22:27:30.427Z,2.16
2024-01-05T22:29:57.964Z,2.14
2024-01-05T22:32:25.656Z,2.13
2024-01-05T22:34:53.269Z,2.12
2024-01-05T22:37:20.938Z,2.10
2024-01-05T22:39:48.639Z,2.08
2024-01-05T22:42:16.502Z,2.06
2024-01-05T22:44:44.036Z,2.04
2024-01-05T22:47:11.694Z,2.01
2024-01-05T22:49:39.461Z,1.98
2024-01-05T22:52:07.102Z,1.95
2024-01-05T22:54:34.499Z,1.88
2024-01-05T22:57:02.015Z,1.79
2024-01-05T22:59:29.698Z,1.70
2024-01-05T23:01:57.568Z,1.64
2024-01-05T23:04:25.282Z,1.62
2024-01-05T23:06:53.057Z,1.61
2024-01-05T23:09:20.793Z,1.58
2024-01-05T23:11:48.506Z,1.53
2024-01-05T23:14:16.170Z,1.48
2024-01-05T23:16:43.834Z,1.43
2024-01-05T23:19:11.582Z,1.42
2024-01-05T23:21:39.286Z,1.42
2024-01-05T23:24:07.063Z,1.42
2024-01-05T23:26:34.580Z,1.40
2024-01-05T23:29:02.137Z,1.40
2024-01-05T23:31:29.948Z,1.35
2024-01-05T23:34:07.859Z,1.30
2024-01-05T23:36:41.359Z,1.26
2024-01-05T23:39:09.104Z,1.23
2024-01-05T23:41:36.816Z,1.21
2024-01-05T23:44:04.395Z,1.21
2024-01-05T23:46:32.075Z,1.22
2024-01-05T23:48:59.802Z,1.24
2024-01-05T23:51:27.523Z,1.26
2024-01-05T23:53:55.039Z,1.28
2024-01-05T23:56:22.595Z,1.31
2024-01-05T23:58:50.246Z,1.33
